createdAt,value
2023-01-03T00:01:53.125Z,1.50
2023-01-03T00:04:21.316Z,1.30
2023-01-03T00:06:50.922Z,1.70
2023-01-03T00:09:20.817Z,1.50
2023-01-03T00:12:08.183Z,2.00
2023-01-03T00:14:39.590Z,1.47
2023-01-03T00:17:08.197Z,1.80
2023-01-03T00:19:40.822Z,1.63
2023-01-03T00:22:07.946Z,1.50
2023-01-03T00:24:34.555Z,1.73
2023-01-03T00:27:01.000Z,1.53
2023-01-03T00:29:28.184Z,1.70
2023-01-03T00:31:54.631Z,2.20
2023-01-03T00:34:21.293Z,2.00
2023-01-03T00:36:47.922Z,1.83
2023-01-03T00:39:14.640Z,1.83
2023-01-03T00:41:41.114Z,1.80
2023-01-03T00:44:07.974Z,1.80
2023-01-03T00:46:35.620Z,1.77
2023-01-03T00:49:04.506Z,2.03
2023-01-03T00:51:34.551Z,2.00
2023-01-03T00:54:03.135Z,2.00
2023-01-03T00:56:32.939Z,1.90
2023-01-03T00:58:59.577Z,1.87
2023-01-03T01:01:33.867Z,1.80
2023-01-03T01:04:09.272Z,2.07
2023-01-03T01:06:39.765Z,1.80
2023-01-03T01:09:09.297Z,1.90
2023-01-03T01:11:35.554Z,1.70
2023-01-03T01:14:01.998Z,1.70
2023-01-03T01:16:31.128Z,1.80
2023-01-03T01:18:59.511Z,1.93
2023-01-03T01:21:29.406Z,1.80
2023-01-03T01:23:58.999Z,1.97
2023-01-03T01:26:25.946Z,1.87
2023-01-03T01:28:53.486Z,2.00
2023-01-03T01:31:22.086Z,2.03
2023-01-03T01:33:49.628Z,2.37
2023-01-03T01:36:22.133Z,1.60
2023-01-03T01:38:58.716Z,1.97
2023-01-03T01:41:45.016Z,2.10
2023-01-03T01:44:43.077Z,2.00
2023-01-03T01:47:27.479Z,2.07
2023-01-03T01:50:15.811Z,2.00
2023-01-03T01:52:58.617Z,1.60
2023-01-03T01:55:38.127Z,1.70
2023-01-03T01:58:06.567Z,1.90
2023-01-03T02:00:33.947Z,1.60
2023-01-03T02:03:00.504Z,2.13
2023-01-03T02:05:28.431Z,1.83
2023-01-03T02:07:56.325Z,1.53
2023-01-03T02:10:42.235Z,2.07
2023-01-03T02:13:51.699Z,1.90
2023-01-03T02:16:47.735Z,2.23
2023-01-03T02:19:50.927Z,2.00
2023-01-03T02:22:23.708Z,1.80
2023-01-03T02:25:17.188Z,1.70
2023-01-03T02:27:55.612Z,2.03
2023-01-03T02:30:27.810Z,2.37
2023-01-03T02:33:17.871Z,2.40
2023-01-03T02:36:08.811Z,2.10
2023-01-03T02:38:50.677Z,2.50
2023-01-03T02:41:39.675Z,2.43
2023-01-03T02:44:31.006Z,2.70
2023-01-03T02:47:06.337Z,2.50
2023-01-03T02:49:49.226Z,2.33
2023-01-03T02:52:23.962Z,2.50
2023-01-03T02:55:30.398Z,2.27
2023-01-03T02:58:04.586Z,2.20
2023-01-03T03:00:33.476Z,2.27
2023-01-03T03:03:05.978Z,1.80
2023-01-03T03:05:41.877Z,2.10
2023-01-03T03:08:08.093Z,2.37
2023-01-03T03:10:55.121Z,2.10
2023-01-03T03:13:38.277Z,2.03
2023-01-03T03:16:09.091Z,1.70
2023-01-03T03:18:38.799Z,1.50
2023-01-03T03:21:26.824Z,1.63
2023-01-03T03:24:14.780Z,2.20
2023-01-03T03:26:44.309Z,1.70
2023-01-03T03:29:18.207Z,1.93
2023-01-03T03:31:48.622Z,1.80
2023-01-03T03:34:28.769Z,1.50
2023-01-03T03:37:00.123Z,2.00
2023-01-03T03:39:47.337Z,1.70
2023-01-03T03:43:11.361Z,1.43
2023-01-03T03:46:02.056Z,1.73
2023-01-03T03:49:05.887Z,1.87
2023-01-03T03:51:35.847Z,1.70
2023-01-03T03:54:08.407Z,1.20
2023-01-03T03:56:37.398Z,1.53
2023-01-03T03:59:07.551Z,1.50
2023-01-03T04:01:37.093Z,1.87
2023-01-03T04:04:08.859Z,2.20
2023-01-03T04:06:39.798Z,1.60
2023-01-03T04:09:08.269Z,1.70
2023-01-03T04:11:34.983Z,1.63
2023-01-03T04:14:01.511Z,1.63
2023-01-03T04:16:27.781Z,1.53
2023-01-03T04:18:54.274Z,1.70
2023-01-03T04:21:21.196Z,1.90
2023-01-03T04:23:48.345Z,1.60
2023-01-03T04:26:15.333Z,1.73
2023-01-03T04:28:42.049Z,1.67
2023-01-03T04:31:08.398Z,1.73
2023-01-03T04:33:35.134Z,2.13
2023-01-03T04:36:01.401Z,1.90
2023-01-03T04:38:27.937Z,1.57
2023-01-03T04:40:54.135Z,1.73
2023-01-03T04:43:39.364Z,1.87
2023-01-03T04:46:05.563Z,1.97
2023-01-03T04:48:32.224Z,1.77
2023-01-03T04:51:00.201Z,1.83
2023-01-03T04:53:26.910Z,1.80
2023-01-03T04:55:56.061Z,1.63
2023-01-03T04:58:23.167Z,2.07
2023-01-03T05:00:50.095Z,1.80
2023-01-03T05:03:18.239Z,1.77
2023-01-03T05:05:46.400Z,1.97
2023-01-03T05:08:12.904Z,2.00
2023-01-03T05:10:40.104Z,1.70
2023-01-03T05:13:07.649Z,1.80
2023-01-03T05:15:36.833Z,2.20
2023-01-03T05:18:04.053Z,2.00
2023-01-03T05:20:48.854Z,2.23
2023-01-03T05:23:36.051Z,2.00
2023-01-03T05:26:07.002Z,2.30
2023-01-03T05:28:33.863Z,2.17
2023-01-03T05:31:00.218Z,2.20
2023-01-03T05:33:27.055Z,2.20
2023-01-03T05:35:53.697Z,2.60
2023-01-03T05:38:20.448Z,2.40
2023-01-03T05:40:47.178Z,2.73
2023-01-03T05:43:13.810Z,3.07
2023-01-03T05:45:40.452Z,2.93
2023-01-03T05:48:08.152Z,3.40
2023-01-03T05:50:35.150Z,2.87
2023-01-03T05:53:03.194Z,2.93
2023-01-03T05:55:29.441Z,2.97
2023-01-03T05:57:55.927Z,2.57
2023-01-03T06:00:22.314Z,2.27
2023-01-03T06:02:48.890Z,2.67
2023-01-03T06:05:15.168Z,2.50
2023-01-03T06:07:41.616Z,2.30
2023-01-03T06:10:08.424Z,2.00
2023-01-03T06:12:35.089Z,2.30
2023-01-03T06:15:01.456Z,2.40
2023-01-03T06:17:46.755Z,2.10
2023-01-03T06:20:13.505Z,1.73
2023-01-03T06:22:40.433Z,2.20
2023-01-03T06:25:06.870Z,1.93
2023-01-03T06:27:33.505Z,2.13
2023-01-03T06:29:59.969Z,2.47
2023-01-03T06:32:26.493Z,2.00
2023-01-03T06:34:52.828Z,2.17
2023-01-03T06:37:19.535Z,1.77
2023-01-03T06:39:46.178Z,2.17
2023-01-03T06:42:31.802Z,1.93
2023-01-03T06:45:16.867Z,1.53
2023-01-03T06:48:02.063Z,1.50
2023-01-03T06:50:47.078Z,1.30
2023-01-03T06:53:19.757Z,1.13
2023-01-03T06:55:52.729Z,1.13
2023-01-03T06:58:22.744Z,1.20
2023-01-03T07:00:49.279Z,0.80
2023-01-03T07:03:15.776Z,0.90
2023-01-03T07:05:42.153Z,1.10
2023-01-03T07:08:08.762Z,1.33
2023-01-03T07:10:34.946Z,1.20
2023-01-03T07:13:19.983Z,1.60
2023-01-03T07:15:46.339Z,2.40
2023-01-03T07:18:12.923Z,2.20
2023-01-03T07:20:43.442Z,1.70
2023-01-03T07:23:11.580Z,1.80
2023-01-03T07:25:41.112Z,1.60
2023-01-03T07:28:12.713Z,1.63
2023-01-03T07:30:40.843Z,1.93
2023-01-03T07:33:09.263Z,2.10
2023-01-03T07:35:36.474Z,1.70
2023-01-03T07:38:04.849Z,9.23
2023-01-03T07:40:31.502Z,2.00
2023-01-03T07:43:16.561Z,1.87
2023-01-03T07:45:43.812Z,1.50
2023-01-03T07:48:10.842Z,2.60
2023-01-03T07:50:37.342Z,1.33
2023-01-03T07:53:05.922Z,1.70
2023-01-03T07:55:35.308Z,2.13
2023-01-03T07:58:02.320Z,1.87
2023-01-03T08:00:28.492Z,1.67
2023-01-03T08:02:55.436Z,1.43
2023-01-03T08:05:23.240Z,1.30
2023-01-03T08:07:51.512Z,1.63
2023-01-03T08:10:37.477Z,1.17
2023-01-03T08:13:16.772Z,1.37
2023-01-03T08:15:44.516Z,1.17
2023-01-03T08:18:11.632Z,1.47
2023-01-03T08:20:38.122Z,1.37
2023-01-03T08:23:04.687Z,1.77
2023-01-03T08:25:31.437Z,1.33
2023-01-03T08:27:58.949Z,1.67
2023-01-03T08:30:25.263Z,2.00
2023-01-03T08:32:54.166Z,1.50
2023-01-03T08:35:22.665Z,1.50
2023-01-03T08:37:53.535Z,1.50
2023-01-03T08:40:20.137Z,1.57
2023-01-03T08:42:46.818Z,1.77
2023-01-03T08:45:16.931Z,1.50
2023-01-03T08:47:44.457Z,1.70
2023-01-03T08:50:11.391Z,1.60
2023-01-03T08:52:37.930Z,1.30
2023-01-03T08:55:04.981Z,1.50
2023-01-03T08:57:31.613Z,1.70
2023-01-03T08:59:58.142Z,1.40
2023-01-03T09:02:24.846Z,1.50
2023-01-03T09:04:52.079Z,1.30
2023-01-03T09:07:18.571Z,1.20
2023-01-03T09:09:45.101Z,1.27
2023-01-03T09:12:11.603Z,1.50
2023-01-03T09:14:38.112Z,1.40
2023-01-03T09:17:04.536Z,1.77
2023-01-03T09:19:30.762Z,1.37
2023-01-03T09:21:57.281Z,1.50
2023-01-03T09:24:23.445Z,1.37
2023-01-03T09:26:54.456Z,1.60
2023-01-03T09:29:21.662Z,1.40
2023-01-03T09:31:48.306Z,1.73
2023-01-03T09:34:14.667Z,1.27
2023-01-03T09:36:41.164Z,1.80
2023-01-03T09:39:07.346Z,1.27
2023-01-03T09:41:34.659Z,1.50
2023-01-03T09:44:07.320Z,1.50
2023-01-03T09:46:34.762Z,1.80
2023-01-03T09:49:03.081Z,1.40
2023-01-03T09:51:52.650Z,1.70
2023-01-03T09:54:52.285Z,1.53
2023-01-03T09:57:46.580Z,1.60
2023-01-03T10:00:42.491Z,1.60
2023-01-03T10:03:48.335Z,1.67
2023-01-03T10:06:33.010Z,2.77
2023-01-03T10:09:30.613Z,2.20
2023-01-03T10:12:11.795Z,1.73
2023-01-03T10:14:38.235Z,1.70
2023-01-03T10:17:10.473Z,1.87
2023-01-03T10:19:55.255Z,2.40
2023-01-03T10:22:26.474Z,1.60
2023-01-03T10:25:05.138Z,1.47
2023-01-03T10:27:34.881Z,1.30
2023-01-03T10:30:06.131Z,1.80
2023-01-03T10:33:03.502Z,1.77
2023-01-03T10:35:35.138Z,1.83
2023-01-03T10:38:01.864Z,2.00
2023-01-03T10:40:50.585Z,1.67
2023-01-03T10:43:19.122Z,1.60
2023-01-03T10:45:51.396Z,1.50
2023-01-03T10:48:18.144Z,1.73
2023-01-03T10:50:45.373Z,1.40
2023-01-03T10:53:15.100Z,2.03
2023-01-03T10:55:53.458Z,1.97
2023-01-03T10:58:34.106Z,1.40
2023-01-03T11:01:24.354Z,1.50
2023-01-03T11:04:14.878Z,1.70
2023-01-03T11:06:57.445Z,1.60
2023-01-03T11:09:23.695Z,1.43
2023-01-03T11:11:58.893Z,1.37
2023-01-03T11:14:27.073Z,1.70
2023-01-03T11:17:04.761Z,2.30
2023-01-03T11:19:33.295Z,1.77
2023-01-03T11:22:21.647Z,1.50
2023-01-03T11:25:15.468Z,1.73
2023-01-03T11:28:03.256Z,1.40
2023-01-03T11:30:39.588Z,1.73
2023-01-03T11:33:15.212Z,1.47
2023-01-03T11:36:05.168Z,2.00
2023-01-03T11:38:55.918Z,1.10
2023-01-03T11:41:54.193Z,1.40
2023-01-03T11:44:38.334Z,2.50
2023-01-03T11:47:07.394Z,1.53
2023-01-03T11:49:39.762Z,1.90
2023-01-03T11:52:31.740Z,3.97
2023-01-03T11:55:19.401Z,5.60
2023-01-03T11:57:57.682Z,2.67
2023-01-03T12:00:46.063Z,2.07
2023-01-03T12:03:36.453Z,1.80
2023-01-03T12:06:14.626Z,1.87
2023-01-03T12:08:49.000Z,2.30
2023-01-03T12:11:46.636Z,2.13
2023-01-03T12:14:30.990Z,1.50
2023-01-03T12:17:06.747Z,1.37
2023-01-03T12:19:32.844Z,1.60
2023-01-03T12:22:24.378Z,1.50
2023-01-03T12:25:06.123Z,1.17
2023-01-03T12:27:38.095Z,1.63
2023-01-03T12:30:34.423Z,1.70
2023-01-03T12:33:05.921Z,1.60
2023-01-03T12:35:47.639Z,1.57
2023-01-03T12:38:21.235Z,1.00
2023-01-03T12:40:58.045Z,1.17
2023-01-03T12:43:53.019Z,1.50
2023-01-03T12:46:26.130Z,1.43
2023-01-03T12:49:09.696Z,1.60
2023-01-03T12:51:36.144Z,1.27
2023-01-03T12:54:25.333Z,1.27
2023-01-03T12:57:20.700Z,1.10
2023-01-03T13:00:23.800Z,1.20
2023-01-03T13:02:59.678Z,1.50
2023-01-03T13:05:44.530Z,1.30
2023-01-03T13:08:33.065Z,1.40
2023-01-03T13:11:16.578Z,1.50
2023-01-03T13:13:53.723Z,1.50
2023-01-03T13:16:37.997Z,2.10
2023-01-03T13:19:19.770Z,1.80
2023-01-03T13:21:52.721Z,1.40
2023-01-03T13:24:44.671Z,1.87
2023-01-03T13:27:20.220Z,1.50
2023-01-03T13:29:49.834Z,1.90
2023-01-03T13:32:16.612Z,1.80
2023-01-03T13:34:43.114Z,1.20
2023-01-03T13:37:15.691Z,2.07
2023-01-03T13:39:51.229Z,2.40
2023-01-03T13:42:33.251Z,2.17
2023-01-03T13:45:14.847Z,2.00
2023-01-03T13:47:42.954Z,1.80
2023-01-03T13:50:22.623Z,2.20
2023-01-03T13:53:04.561Z,1.90
2023-01-03T13:55:37.191Z,3.00
2023-01-03T13:58:26.716Z,2.40
2023-01-03T14:01:05.512Z,1.60
2023-01-03T14:03:54.700Z,1.57
2023-01-03T14:07:06.124Z,1.90
2023-01-03T14:09:51.601Z,1.43
2023-01-03T14:12:30.394Z,1.50
2023-01-03T14:14:57.739Z,1.40
2023-01-03T14:17:31.612Z,1.40
2023-01-03T14:20:05.310Z,2.03
2023-01-03T14:22:43.345Z,1.67
2023-01-03T14:25:40.568Z,1.27
2023-01-03T14:28:15.853Z,1.70
2023-01-03T14:30:43.768Z,1.33
2023-01-03T14:33:22.269Z,1.40
2023-01-03T14:35:59.694Z,1.40
2023-01-03T14:38:33.729Z,1.63
2023-01-03T14:41:02.400Z,1.50
2023-01-03T14:43:31.428Z,1.30
2023-01-03T14:46:06.837Z,1.40
2023-01-03T14:48:33.772Z,1.50
2023-01-03T14:51:03.622Z,1.43
2023-01-03T14:53:32.498Z,1.43
2023-01-03T14:56:00.298Z,1.90
2023-01-03T14:58:38.899Z,1.50
2023-01-03T15:01:09.949Z,1.47
2023-01-03T15:03:40.019Z,1.63
2023-01-03T15:06:27.152Z,2.03
2023-01-03T15:09:13.045Z,1.63
2023-01-03T15:11:57.025Z,1.60
2023-01-03T15:14:29.259Z,1.83
2023-01-03T15:17:03.827Z,1.83
2023-01-03T15:19:32.046Z,2.03
2023-01-03T15:22:04.834Z,1.60
2023-01-03T15:24:42.858Z,1.83
2023-01-03T15:27:32.891Z,2.10
2023-01-03T15:30:14.600Z,2.20
2023-01-03T15:33:04.172Z,1.97
2023-01-03T15:35:36.605Z,19.53
2023-01-03T15:38:16.003Z,3.40
2023-01-03T15:40:44.591Z,2.50
2023-01-03T15:43:19.138Z,2.67
2023-01-03T15:45:51.505Z,4.00
2023-01-03T15:48:20.562Z,4.27
2023-01-03T15:50:52.057Z,6.83
2023-01-03T15:53:31.207Z,3.07
2023-01-03T15:56:19.571Z,2.47
2023-01-03T15:58:48.804Z,7.67
2023-01-03T16:01:16.723Z,7.00
2023-01-03T16:03:43.697Z,2.47
2023-01-03T16:06:10.174Z,2.67
2023-01-03T16:08:38.457Z,12.80
2023-01-03T16:11:11.541Z,5.97
2023-01-03T16:13:41.378Z,5.20
2023-01-03T16:16:08.630Z,4.17
2023-01-03T16:18:39.558Z,4.23
2023-01-03T16:21:06.083Z,4.60
2023-01-03T16:23:34.028Z,4.47
2023-01-03T16:26:00.857Z,4.27
2023-01-03T16:28:27.662Z,5.67
2023-01-03T16:31:18.701Z,4.50
2023-01-03T16:33:48.145Z,4.33
2023-01-03T16:36:37.574Z,4.83
2023-01-03T16:39:14.757Z,4.50
2023-01-03T16:41:41.641Z,4.17
2023-01-03T16:44:08.720Z,4.27
2023-01-03T16:46:38.363Z,4.37
2023-01-03T16:49:06.200Z,4.53
2023-01-03T16:51:34.820Z,4.60
2023-01-03T16:54:05.440Z,4.40
2023-01-03T16:56:32.115Z,4.83
2023-01-03T16:58:58.855Z,4.57
2023-01-03T17:01:25.942Z,5.13
2023-01-03T17:03:53.641Z,4.40
2023-01-03T17:06:37.566Z,5.20
2023-01-03T17:09:16.096Z,5.90
2023-01-03T17:11:43.673Z,6.27
2023-01-03T17:14:20.186Z,7.17
2023-01-03T17:16:46.958Z,10.00
2023-01-03T17:22:16.142Z,21.37
2023-01-03T17:24:43.603Z,13.37
2023-01-03T17:27:32.461Z,15.57
2023-01-03T17:30:06.072Z,20.03
2023-01-03T17:32:33.197Z,13.00
2023-01-03T17:34:59.994Z,10.30
2023-01-03T17:37:26.186Z,9.70
2023-01-03T17:39:56.366Z,9.53
2023-01-03T17:42:23.710Z,13.03
2023-01-03T17:45:09.693Z,12.07
2023-01-03T17:48:00.588Z,15.33
2023-01-03T17:50:30.248Z,13.63
2023-01-03T17:52:57.941Z,12.67
2023-01-03T17:55:28.092Z,15.00
2023-01-03T17:57:56.035Z,15.73
2023-01-03T18:00:25.535Z,17.13
2023-01-03T18:02:53.534Z,18.90
2023-01-03T18:05:27.818Z,18.80
2023-01-03T18:07:56.358Z,21.60
2023-01-03T18:10:38.700Z,19.07
2023-01-03T18:13:21.433Z,17.33
2023-01-03T18:15:48.552Z,16.53
2023-01-03T18:18:19.397Z,18.47
2023-01-03T18:20:46.103Z,20.47
2023-01-03T18:23:25.194Z,22.33
2023-01-03T18:25:52.675Z,20.83
2023-01-03T18:28:25.408Z,24.47
2023-01-03T18:30:53.262Z,21.77
2023-01-03T18:33:19.644Z,21.23
2023-01-03T18:35:46.145Z,16.87
2023-01-03T18:38:31.693Z,13.00
2023-01-03T18:41:04.531Z,11.87
2023-01-03T18:43:33.430Z,11.73
2023-01-03T18:46:00.856Z,11.97
2023-01-03T18:48:29.499Z,13.43
2023-01-03T18:50:59.451Z,13.00
2023-01-03T18:53:36.369Z,11.83
2023-01-03T18:56:04.487Z,14.70
2023-01-03T18:58:40.166Z,11.13
2023-01-03T19:01:07.149Z,11.03
2023-01-03T19:03:34.684Z,10.87
2023-01-03T19:06:02.382Z,10.77
2023-01-03T19:08:37.013Z,11.03
2023-01-03T19:11:36.467Z,16.97
2023-01-03T19:14:07.406Z,15.90
2023-01-03T19:16:36.566Z,15.23
2023-01-03T19:19:04.985Z,14.20
2023-01-03T19:21:35.607Z,14.33
2023-01-03T19:24:34.593Z,13.67
2023-01-03T19:27:14.850Z,19.23
2023-01-03T19:29:41.942Z,20.73
2023-01-03T19:32:19.827Z,14.43
2023-01-03T19:34:46.451Z,13.53
2023-01-03T19:37:13.191Z,15.53
2023-01-03T19:39:40.026Z,14.60
2023-01-03T19:42:32.495Z,18.27
2023-01-03T19:45:00.665Z,20.57
2023-01-03T19:47:27.809Z,15.97
2023-01-03T19:49:54.316Z,16.23
2023-01-03T19:52:21.214Z,18.90
2023-01-03T19:54:47.576Z,19.30
2023-01-03T19:57:24.156Z,16.83
2023-01-03T19:59:54.282Z,19.67
2023-01-03T20:02:38.531Z,25.23
2023-01-03T20:05:34.627Z,24.23
2023-01-03T20:08:11.228Z,26.13
2023-01-03T20:10:43.202Z,32.43
2023-01-03T20:13:18.779Z,28.80
2023-01-03T20:15:47.699Z,28.50
2023-01-03T20:18:24.058Z,24.63
2023-01-03T20:20:52.560Z,22.37
2023-01-03T20:23:19.183Z,21.67
2023-01-03T20:25:45.656Z,19.10
2023-01-03T20:28:29.884Z,18.43
2023-01-03T20:31:00.150Z,19.07
2023-01-03T20:33:27.933Z,18.77
2023-01-03T20:36:16.265Z,19.77
2023-01-03T20:38:51.236Z,19.33
2023-01-03T20:41:18.288Z,19.87
2023-01-03T20:43:46.801Z,22.30
2023-01-03T20:46:19.785Z,23.43
2023-01-03T20:48:55.754Z,17.30
2023-01-03T20:51:23.885Z,14.73
2023-01-03T20:53:54.731Z,14.60
2023-01-03T20:56:22.525Z,15.03
2023-01-03T20:58:49.185Z,14.53
2023-01-03T21:01:15.731Z,14.00
2023-01-03T21:03:42.617Z,14.27
2023-01-03T21:06:17.062Z,15.40
2023-01-03T21:08:53.450Z,15.00
2023-01-03T21:11:29.160Z,15.83
2023-01-03T21:13:57.502Z,14.53
2023-01-03T21:16:48.117Z,15.43
2023-01-03T21:19:20.013Z,17.07
2023-01-03T21:21:49.651Z,18.10
2023-01-03T21:24:18.831Z,16.33
2023-01-03T21:26:45.494Z,18.83
2023-01-03T21:29:12.255Z,17.37
2023-01-03T21:31:41.738Z,18.17
2023-01-03T21:34:16.586Z,17.30
2023-01-03T21:36:43.087Z,20.37
2023-01-03T21:39:10.339Z,20.50
2023-01-03T21:41:56.784Z,18.63
2023-01-03T21:44:23.580Z,16.20
2023-01-03T21:46:52.074Z,18.00
2023-01-03T21:49:21.874Z,16.17
2023-01-03T21:51:48.351Z,16.57
2023-01-03T21:54:15.309Z,16.80
2023-01-03T21:56:44.738Z,17.87
2023-01-03T21:59:13.216Z,16.73
2023-01-03T22:01:59.706Z,17.37
2023-01-03T22:04:26.432Z,19.33
2023-01-03T22:06:59.650Z,19.47
2023-01-03T22:09:45.775Z,22.67
2023-01-03T22:12:15.244Z,19.77
2023-01-03T22:14:43.813Z,18.13
2023-01-03T22:17:10.103Z,20.83
2023-01-03T22:19:36.903Z,18.13
2023-01-03T22:22:04.154Z,18.17
2023-01-03T22:24:31.010Z,18.50
2023-01-03T22:26:57.268Z,17.93
2023-01-03T22:29:24.018Z,17.23
2023-01-03T22:31:50.582Z,18.07
2023-01-03T22:34:17.315Z,20.10
2023-01-03T22:36:43.696Z,20.70
2023-01-03T22:39:10.323Z,21.03
2023-01-03T22:41:36.591Z,19.37
2023-01-03T22:44:03.252Z,18.90
2023-01-03T22:46:29.559Z,17.83
2023-01-03T22:48:56.204Z,19.37
2023-01-03T22:51:22.563Z,17.87
2023-01-03T22:53:49.179Z,18.87
2023-01-03T22:56:17.279Z,18.73
2023-01-03T22:58:45.001Z,18.87
2023-01-03T23:01:14.918Z,18.50
2023-01-03T23:03:43.461Z,18.70
2023-01-03T23:06:12.483Z,18.57
2023-01-03T23:08:39.139Z,18.40
2023-01-03T23:11:33.846Z,17.97
2023-01-03T23:14:03.750Z,18.97
2023-01-03T23:16:31.427Z,30.03
2023-01-03T23:19:00.728Z,30.87
2023-01-03T23:21:27.015Z,34.90
2023-01-03T23:23:53.455Z,35.97
2023-01-03T23:26:19.555Z,30.70
2023-01-03T23:28:46.290Z,32.20
2023-01-03T23:31:12.667Z,30.47
2023-01-03T23:33:39.525Z,31.30
2023-01-03T23:36:08.036Z,28.70
2023-01-03T23:38:35.013Z,27.33
2023-01-03T23:41:11.166Z,27.20
2023-01-03T23:43:38.099Z,24.77
2023-01-03T23:46:05.234Z,22.73
2023-01-03T23:48:32.082Z,23.30
2023-01-03T23:51:02.747Z,25.00
2023-01-03T23:53:29.393Z,25.63
2023-01-03T23:55:57.155Z,24.47
2023-01-03T23:58:23.583Z,23.03
